Time;durP1;ratioP1;P1;durP2;ratioP2;P2;SDS_P1;SDS_P2;PMS_P1;PMS_P2;Temp;Humidity;BMP_temperature;BMP_pressure;BME280_temperature;BME280_humidity;BME280_pressure;Samples;Min_cycle;Max_cycle;Signal;HPM_P1;HPM_P2
2024/02/21 00:00:47;;;;;;;14.32;5.28;;;7.20;99.90;;;;;;5036235;28;20104;-89
2024/02/21 00:03:12;;;;;;;14.65;6.75;;;7.20;99.90;;;;;;5037197;28;20036;-90
2024/02/21 00:05:38;;;;;;;14.55;7.07;;;7.20;99.90;;;;;;5034390;28;20034;-89
2024/02/21 00:08:04;;;;;;;12.45;6.10;;;7.30;99.90;;;;;;5031551;28;20109;-89
2024/02/21 00:10:32;;;;;;;15.00;6.18;;;7.30;99.70;;;;;;5035804;28;20056;-90
2024/02/21 00:12:59;;;;;;;16.45;5.45;;;7.30;99.30;;;;;;5031760;28;20025;-88
2024/02/21 00:15:24;;;;;;;10.50;4.82;;;7.30;99.30;;;;;;5030591;28;20393;-90
2024/02/21 00:17:50;;;;;;;8.43;4.85;;;7.30;98.80;;;;;;5035502;28;20024;-90
2024/02/21 00:20:16;;;;;;;13.70;5.55;;;7.40;98.00;;;;;;5029285;28;20081;-89
2024/02/21 00:22:41;;;;;;;14.20;4.85;;;7.40;97.60;;;;;;5030146;28;20021;-90
2024/02/21 00:25:08;;;;;;;13.13;5.50;;;7.50;97.70;;;;;;5036676;28;20097;-89
2024/02/21 00:27:34;;;;;;;12.70;5.20;;;7.40;97.40;;;;;;5034232;28;20036;-89
2024/02/21 00:29:59;;;;;;;11.48;5.18;;;7.50;97.60;;;;;;5036607;28;20093;-89
2024/02/21 00:32:25;;;;;;;10.50;4.30;;;7.50;97.00;;;;;;5032818;28;20032;-89
2024/02/21 00:34:50;;;;;;;13.70;4.07;;;7.50;97.20;;;;;;5035707;28;20057;-90
2024/02/21 00:37:16;;;;;;;12.60;6.80;;;7.50;96.90;;;;;;5033991;28;20030;-90
2024/02/21 00:39:42;;;;;;;10.77;4.75;;;7.50;97.00;;;;;;5036327;28;20108;-89
2024/02/21 00:42:08;;;;;;;9.27;4.47;;;7.50;96.80;;;;;;5036277;28;20021;-89
2024/02/21 00:44:33;;;;;;;12.57;5.57;;;7.50;97.20;;;;;;5043762;28;20032;-89
2024/02/21 00:46:59;;;;;;;12.68;5.45;;;7.50;96.50;;;;;;5036315;28;20022;-90
2024/02/21 00:49:26;;;;;;;12.48;5.53;;;7.50;97.70;;;;;;5035398;28;20022;-90
2024/02/21 00:51:51;;;;;;;11.13;4.25;;;7.50;96.50;;;;;;5027356;28;20038;-89
2024/02/21 00:54:17;;;;;;;10.02;4.95;;;7.50;97.00;;;;;;5052082;28;20025;-89
2024/02/21 00:56:43;;;;;;;13.32;4.57;;;7.50;97.50;;;;;;5037521;28;20047;-90
2024/02/21 00:59:08;;;;;;;10.88;4.70;;;7.60;97.60;;;;;;5036563;28;20064;-88
2024/02/21 01:01:34;;;;;;;12.73;6.00;;;7.50;98.80;;;;;;5036152;28;20029;-87
2024/02/21 01:04:00;;;;;;;10.85;5.10;;;7.50;99.60;;;;;;5039175;28;20017;-88
2024/02/21 01:06:26;;;;;;;11.32;3.78;;;7.50;99.90;;;;;;5038109;28;20100;-89
2024/02/21 01:08:51;;;;;;;13.77;5.07;;;7.50;99.90;;;;;;5040398;28;20109;-89
2024/02/21 01:11:17;;;;;;;12.95;4.22;;;7.40;99.90;;;;;;5039099;28;20021;-89
2024/02/21 01:13:43;;;;;;;8.48;4.10;;;7.40;99.90;;;;;;5038947;28;20029;-90
2024/02/21 01:16:09;;;;;;;13.88;4.15;;;7.40;99.90;;;;;;5036102;28;20117;-88
2024/02/21 01:18:36;;;;;;;12.48;5.00;;;7.30;99.90;;;;;;5039611;28;20059;-89
2024/02/21 01:21:02;;;;;;;10.38;4.53;;;7.30;99.90;;;;;;5038597;28;20048;-90
2024/02/21 01:23:28;;;;;;;10.82;4.90;;;7.30;99.90;;;;;;5037318;28;20089;-89
2024/02/21 01:25:55;;;;;;;10.98;5.07;;;7.20;99.90;;;;;;5039531;28;20029;-89
2024/02/21 01:28:20;;;;;;;11.05;4.38;;;7.20;99.90;;;;;;5041813;28;20040;-89
2024/02/21 01:30:46;;;;;;;9.82;4.40;;;7.20;99.90;;;;;;5042454;28;20484;-87
2024/02/21 01:33:12;;;;;;;12.20;5.72;;;7.20;99.90;;;;;;5040128;28;20025;-89
2024/02/21 01:35:37;;;;;;;13.68;5.53;;;7.20;99.90;;;;;;5039437;28;20141;-88
2024/02/21 01:38:04;;;;;;;12.32;5.60;;;7.10;99.90;;;;;;5034583;28;20519;-87
2024/02/21 01:40:30;;;;;;;13.85;6.50;;;7.20;99.90;;;;;;5036183;28;20022;-88
2024/02/21 01:42:55;;;;;;;9.70;4.43;;;7.20;99.90;;;;;;5038908;28;20053;-88
2024/02/21 01:45:21;;;;;;;10.85;5.15;;;7.20;99.90;;;;;;5039402;28;20018;-88
2024/02/21 01:47:49;;;;;;;10.95;5.63;;;7.10;99.90;;;;;;5030673;28;20026;-91
2024/02/21 01:50:15;;;;;;;11.57;6.03;;;7.10;99.90;;;;;;5039453;28;20075;-90
2024/02/21 01:52:43;;;;;;;14.73;4.80;;;7.10;99.90;;;;;;5039490;28;20030;-90
2024/02/21 01:55:13;;;;;;;13.13;5.03;;;7.10;99.90;;;;;;5038140;28;20022;-89
2024/02/21 01:57:39;;;;;;;13.48;7.07;;;7.00;99.90;;;;;;5037138;28;20028;-89
2024/02/21 02:00:06;;;;;;;10.38;5.15;;;7.00;99.90;;;;;;5034211;28;20033;-89
2024/02/21 02:02:32;;;;;;;8.93;5.10;;;7.00;99.90;;;;;;5026789;28;20017;-87
2024/02/21 02:04:59;;;;;;;11.32;5.30;;;6.90;99.90;;;;;;5038970;28;20032;-88
2024/02/21 02:07:25;;;;;;;9.57;5.85;;;6.90;99.90;;;;;;5039399;28;20030;-88
2024/02/21 02:09:50;;;;;;;9.98;5.20;;;6.80;99.90;;;;;;5038535;28;20036;-91
2024/02/21 02:12:16;;;;;;;14.65;5.53;;;6.80;99.90;;;;;;5035650;28;20029;-90
2024/02/21 02:14:42;;;;;;;12.23;5.15;;;6.90;99.90;;;;;;5053593;28;20032;-89
2024/02/21 02:17:09;;;;;;;11.77;5.00;;;6.80;99.90;;;;;;5038368;28;20049;-89
2024/02/21 02:19:34;;;;;;;15.13;4.97;;;6.80;99.90;;;;;;5039105;28;20026;-89
2024/02/21 02:22:14;;;;;;;11.13;5.47;;;6.80;99.90;;;;;;5037868;28;20029;-88
2024/02/21 02:24:40;;;;;;;11.75;5.90;;;6.90;99.90;;;;;;5039234;28;20022;-88
2024/02/21 02:27:06;;;;;;;10.80;4.32;;;6.90;99.90;;;;;;5035535;28;20032;-88
2024/02/21 02:29:32;;;;;;;12.55;5.18;;;6.90;99.90;;;;;;5037569;28;20488;-89
2024/02/21 02:31:58;;;;;;;8.77;5.38;;;6.90;99.90;;;;;;5038787;28;20056;-89
2024/02/21 02:34:24;;;;;;;14.00;5.30;;;6.90;99.90;;;;;;5038678;28;20029;-88
2024/02/21 02:36:49;;;;;;;10.77;5.55;;;7.00;99.90;;;;;;5041591;28;20698;-88
2024/02/21 02:39:15;;;;;;;13.85;6.45;;;7.00;99.90;;;;;;5038374;28;20149;-87
2024/02/21 02:41:41;;;;;;;15.35;5.55;;;7.00;99.90;;;;;;5038209;28;20068;-89
2024/02/21 02:44:06;;;;;;;12.65;5.13;;;7.00;99.90;;;;;;5037911;28;20480;-88
2024/02/21 02:46:32;;;;;;;20.80;4.80;;;7.10;99.90;;;;;;5038361;28;20040;-89
2024/02/21 02:48:57;;;;;;;8.43;5.05;;;7.00;99.90;;;;;;5038660;28;20477;-88
2024/02/21 02:51:23;;;;;;;10.38;6.18;;;7.00;99.90;;;;;;5038326;28;20029;-89
2024/02/21 02:53:49;;;;;;;11.48;4.78;;;7.00;99.90;;;;;;5036353;28;20060;-88
2024/02/21 02:56:17;;;;;;;12.60;4.50;;;7.00;99.90;;;;;;5052584;28;20034;-87
2024/02/21 02:58:44;;;;;;;8.77;3.60;;;7.00;99.90;;;;;;5037823;28;20381;-88
2024/02/21 03:01:09;;;;;;;10.07;4.82;;;7.00;99.90;;;;;;5037861;28;20409;-88
2024/02/21 03:03:35;;;;;;;8.43;4.65;;;7.00;99.90;;;;;;5038484;28;20033;-89
2024/02/21 03:06:01;;;;;;;12.95;5.05;;;7.00;99.90;;;;;;5035652;28;20030;-89
2024/02/21 03:08:26;;;;;;;12.90;4.38;;;6.90;99.90;;;;;;5037796;28;20516;-88
2024/02/21 03:10:52;;;;;;;11.23;4.75;;;7.00;99.90;;;;;;5037866;28;20021;-87
2024/02/21 03:13:18;;;;;;;13.40;3.80;;;7.00;99.90;;;;;;5031856;28;20060;-89
2024/02/21 03:15:43;;;;;;;10.52;4.35;;;7.00;99.90;;;;;;5036626;28;20582;-89
2024/02/21 03:18:09;;;;;;;10.68;4.50;;;6.90;99.90;;;;;;5038267;28;20443;-88
2024/02/21 03:20:34;;;;;;;11.77;4.97;;;7.00;99.90;;;;;;5038520;28;20401;-87
2024/02/21 03:23:00;;;;;;;9.32;4.75;;;6.90;99.90;;;;;;5037452;28;20022;-89
2024/02/21 03:25:26;;;;;;;8.85;4.45;;;6.90;99.90;;;;;;5036660;28;20033;-90
2024/02/21 03:27:51;;;;;;;12.65;5.00;;;6.90;99.90;;;;;;5037022;28;20032;-89
2024/02/21 03:30:17;;;;;;;11.32;4.57;;;6.80;99.90;;;;;;5031116;28;20061;-88
2024/02/21 03:32:42;;;;;;;12.75;5.25;;;6.80;99.90;;;;;;5035937;28;20053;-89
2024/02/21 03:35:08;;;;;;;11.07;5.13;;;6.90;99.90;;;;;;5037596;28;20021;-89
2024/02/21 03:37:34;;;;;;;13.57;4.78;;;6.80;99.90;;;;;;5037202;28;20025;-89
2024/02/21 03:39:59;;;;;;;7.95;5.05;;;6.80;99.90;;;;;;5037316;28;20025;-89
2024/02/21 03:42:25;;;;;;;9.35;3.95;;;6.80;99.90;;;;;;5036005;28;20033;-87
2024/02/21 03:44:51;;;;;;;8.98;4.55;;;6.70;99.90;;;;;;5036919;28;20110;-88
2024/02/21 03:47:16;;;;;;;11.38;4.50;;;6.70;99.90;;;;;;5035224;28;20034;-89
2024/02/21 03:49:42;;;;;;;12.07;4.50;;;6.70;99.90;;;;;;5037946;28;20041;-88
2024/02/21 03:52:08;;;;;;;8.57;4.60;;;6.70;99.90;;;;;;5037588;28;20025;-89
2024/02/21 03:54:34;;;;;;;9.95;5.13;;;6.60;99.90;;;;;;5053037;28;20039;-90
2024/02/21 03:57:00;;;;;;;13.90;6.03;;;6.50;99.90;;;;;;5052862;28;20477;-88
2024/02/21 03:59:25;;;;;;;12.57;5.03;;;6.50;99.90;;;;;;5037500;28;20025;-87
2024/02/21 04:01:54;;;;;;;14.48;6.10;;;6.50;99.90;;;;;;5036142;28;20025;-89
2024/02/21 04:04:20;;;;;;;14.05;5.38;;;6.40;99.90;;;;;;5036449;28;20578;-89
2024/02/21 04:06:47;;;;;;;16.63;5.43;;;6.40;99.90;;;;;;5035660;28;20022;-88
2024/02/21 04:09:13;;;;;;;15.00;4.65;;;6.40;99.90;;;;;;5036850;28;20167;-89
2024/02/21 04:11:38;;;;;;;10.73;4.75;;;6.30;99.90;;;;;;5036558;28;20053;-89
2024/02/21 04:14:04;;;;;;;10.25;4.70;;;6.30;99.90;;;;;;5037596;28;20081;-88
2024/02/21 04:16:29;;;;;;;9.80;4.93;;;6.20;99.90;;;;;;5035864;28;20130;-89
2024/02/21 04:18:55;;;;;;;7.38;4.57;;;6.20;99.90;;;;;;5035480;28;20022;-88
2024/02/21 04:21:21;;;;;;;11.20;5.28;;;6.20;99.90;;;;;;5036458;28;20013;-88
2024/02/21 04:23:46;;;;;;;9.25;5.18;;;6.20;99.90;;;;;;5034833;28;20055;-88
2024/02/21 04:26:12;;;;;;;9.05;4.55;;;6.20;99.90;;;;;;5036620;28;20438;-88
2024/02/21 04:28:38;;;;;;;14.13;5.45;;;6.20;99.90;;;;;;5036228;28;20036;-88
2024/02/21 04:31:03;;;;;;;10.32;5.03;;;6.10;99.90;;;;;;5044588;28;20527;-88
2024/02/21 04:33:29;;;;;;;12.40;5.20;;;6.10;99.90;;;;;;5036905;28;20022;-89
2024/02/21 04:35:55;;;;;;;14.15;7.40;;;6.10;99.90;;;;;;5036547;28;20024;-88
2024/02/21 04:38:21;;;;;;;11.15;5.65;;;6.10;99.90;;;;;;5040639;28;20025;-88
2024/02/21 04:40:46;;;;;;;11.95;4.97;;;6.00;99.90;;;;;;5040481;28;20369;-89
2024/02/21 04:43:12;;;;;;;11.70;5.57;;;6.00;99.90;;;;;;5042269;28;20036;-88
2024/02/21 04:45:37;;;;;;;9.82;6.03;;;6.00;99.90;;;;;;5040322;28;20021;-87
2024/02/21 04:48:04;;;;;;;11.68;5.38;;;6.00;99.90;;;;;;5039973;28;20025;-89
2024/02/21 04:50:29;;;;;;;11.95;5.13;;;5.90;99.90;;;;;;5040172;28;20032;-90
2024/02/21 04:52:55;;;;;;;13.48;6.03;;;5.90;99.90;;;;;;5039125;28;20045;-88
2024/02/21 04:55:20;;;;;;;8.85;5.43;;;5.90;99.90;;;;;;5039377;28;20037;-89
2024/02/21 04:57:46;;;;;;;9.52;5.68;;;5.80;99.90;;;;;;5040278;28;20029;-88
2024/02/21 05:00:12;;;;;;;9.93;4.70;;;5.80;99.90;;;;;;5041137;28;20036;-89
2024/02/21 05:02:38;;;;;;;15.98;5.85;;;5.80;99.90;;;;;;5038998;28;20010;-88
2024/02/21 05:05:03;;;;;;;11.07;6.55;;;5.70;99.90;;;;;;5040717;28;20650;-89
2024/02/21 05:07:29;;;;;;;12.02;5.05;;;5.70;99.90;;;;;;5040380;28;20511;-90
2024/02/21 05:09:55;;;;;;;13.93;5.80;;;5.70;99.90;;;;;;5040839;28;20073;-89
2024/02/21 05:12:20;;;;;;;12.15;4.90;;;5.70;99.90;;;;;;5039367;28;20083;-88
2024/02/21 05:14:47;;;;;;;13.93;5.32;;;5.60;99.90;;;;;;5040663;28;20029;-88
2024/02/21 05:17:12;;;;;;;16.02;6.90;;;5.60;99.90;;;;;;5056635;28;20438;-86
2024/02/21 05:19:38;;;;;;;11.80;6.15;;;5.60;99.90;;;;;;5039110;28;20085;-89
2024/02/21 05:22:03;;;;;;;11.82;4.82;;;5.50;99.90;;;;;;5037924;28;20029;-89
2024/02/21 05:24:29;;;;;;;10.38;5.22;;;5.50;99.90;;;;;;5039449;28;20032;-89
2024/02/21 05:26:55;;;;;;;9.85;5.47;;;5.50;99.90;;;;;;5045018;28;20029;-89
2024/02/21 05:29:21;;;;;;;10.32;4.45;;;5.50;99.90;;;;;;5040468;28;20073;-89
2024/02/21 05:31:56;;;;;;;13.43;4.93;;;5.50;99.90;;;;;;5034332;28;20109;-88
2024/02/21 05:34:22;;;;;;;9.90;5.55;;;5.40;99.90;;;;;;5037679;28;20051;-90
2024/02/21 05:36:49;;;;;;;15.40;5.47;;;5.40;99.90;;;;;;5039637;28;20105;-88
2024/02/21 05:39:16;;;;;;;10.48;5.32;;;5.40;99.90;;;;;;5037572;28;20560;-88
2024/02/21 05:41:42;;;;;;;16.35;6.28;;;5.50;99.90;;;;;;5039088;28;20013;-89
2024/02/21 05:44:08;;;;;;;12.07;6.10;;;5.50;99.90;;;;;;5055106;28;20087;-87
2024/02/21 05:46:33;;;;;;;10.43;5.68;;;5.50;99.90;;;;;;5054988;28;20028;-88
2024/02/21 05:48:59;;;;;;;13.45;6.70;;;5.40;99.90;;;;;;5040422;28;20036;-89
2024/02/21 05:51:24;;;;;;;12.75;7.18;;;5.50;99.90;;;;;;5038675;28;20026;-88
2024/02/21 05:53:50;;;;;;;11.43;5.75;;;5.50;99.90;;;;;;5038444;28;20025;-88
2024/02/21 05:56:17;;;;;;;15.82;6.47;;;5.40;99.90;;;;;;5037472;28;20034;-88
2024/02/21 05:58:43;;;;;;;10.25;5.45;;;5.50;99.90;;;;;;5037002;28;20022;-90
2024/02/21 06:01:09;;;;;;;12.68;6.85;;;5.40;99.90;;;;;;5037122;28;20028;-88
2024/02/21 06:03:36;;;;;;;13.45;6.07;;;5.40;99.90;;;;;;5038916;28;20484;-89
2024/02/21 06:06:02;;;;;;;19.77;7.78;;;5.40;99.90;;;;;;5038267;28;20085;-89
2024/02/21 06:08:27;;;;;;;11.55;5.38;;;5.40;99.90;;;;;;5038972;28;20694;-88
2024/02/21 06:10:54;;;;;;;9.50;6.15;;;5.40;99.90;;;;;;5037866;28;20057;-90
2024/02/21 06:13:26;;;;;;;16.45;6.60;;;5.40;99.90;;;;;;5037907;28;20018;-89
2024/02/21 06:15:52;;;;;;;12.23;5.35;;;5.40;99.90;;;;;;5036679;28;20559;-91
2024/02/21 06:18:18;;;;;;;14.82;5.82;;;5.40;99.90;;;;;;5037223;28;20611;-88
2024/02/21 06:20:45;;;;;;;12.07;5.60;;;5.40;99.90;;;;;;5037546;28;20022;-88
2024/02/21 06:23:12;;;;;;;11.00;7.38;;;5.40;99.90;;;;;;5034477;28;20029;-88
2024/02/21 06:25:38;;;;;;;11.15;6.63;;;5.50;99.90;;;;;;5037563;28;20028;-89
2024/02/21 06:28:04;;;;;;;11.63;6.53;;;5.50;99.90;;;;;;5021328;28;20647;-88
2024/02/21 06:30:30;;;;;;;11.93;7.40;;;5.40;99.90;;;;;;5021083;28;20147;-88
2024/02/21 06:32:55;;;;;;;10.73;5.20;;;5.40;99.90;;;;;;5017272;28;20195;-91
2024/02/21 06:35:21;;;;;;;14.30;6.95;;;5.40;99.90;;;;;;5014366;28;20039;-89
2024/02/21 06:37:50;;;;;;;11.82;7.97;;;5.40;99.90;;;;;;5016707;28;20087;-87
2024/02/21 06:40:25;;;;;;;15.05;7.22;;;5.30;99.90;;;;;;5024327;28;20029;-88
2024/02/21 06:42:51;;;;;;;13.35;7.82;;;5.30;99.90;;;;;;5018266;28;20030;-88
2024/02/21 06:45:17;;;;;;;17.58;9.18;;;5.30;99.90;;;;;;5020125;28;20026;-91
2024/02/21 06:47:43;;;;;;;16.88;7.25;;;5.30;99.90;;;;;;5019772;28;20040;-90
2024/02/21 06:50:09;;;;;;;11.02;6.28;;;5.20;99.90;;;;;;5017040;28;20042;-90
2024/02/21 06:52:36;;;;;;;13.77;6.88;;;5.20;99.90;;;;;;5016185;28;20044;-89
2024/02/21 06:55:02;;;;;;;15.88;7.10;;;5.20;99.90;;;;;;5020856;28;20427;-90
2024/02/21 06:57:29;;;;;;;13.85;7.50;;;5.20;99.90;;;;;;5014815;28;20532;-89
2024/02/21 06:59:55;;;;;;;12.20;6.50;;;5.20;99.90;;;;;;5014751;28;20090;-88
2024/02/21 07:02:20;;;;;;;9.68;5.60;;;5.20;99.90;;;;;;5018855;28;20613;-88
2024/02/21 07:04:46;;;;;;;15.82;6.63;;;5.20;99.90;;;;;;5018492;28;20101;-88
2024/02/21 07:07:12;;;;;;;14.40;7.40;;;5.20;99.90;;;;;;5010536;28;20911;-88
2024/02/21 07:09:38;;;;;;;15.43;7.43;;;5.20;99.90;;;;;;5018199;28;20034;-88
2024/02/21 07:12:04;;;;;;;11.00;6.07;;;5.20;99.90;;;;;;5020898;28;20041;-89
2024/02/21 07:14:31;;;;;;;10.18;6.15;;;5.20;99.90;;;;;;5014736;28;20062;-89
2024/02/21 07:16:57;;;;;;;11.80;6.57;;;5.30;99.90;;;;;;5032456;28;20025;-90
2024/02/21 07:19:23;;;;;;;11.52;6.63;;;5.30;99.90;;;;;;5037475;28;20030;-89
2024/02/21 07:21:48;;;;;;;15.30;6.57;;;5.30;99.90;;;;;;5026985;28;20025;-88
2024/02/21 07:24:14;;;;;;;12.43;6.68;;;5.30;99.90;;;;;;5037119;28;20179;-88
2024/02/21 07:26:44;;;;;;;11.77;6.78;;;5.40;99.90;;;;;;5029228;28;20049;-91
2024/02/21 07:29:10;;;;;;;11.73;7.00;;;5.40;99.90;;;;;;5036489;28;20053;-91
2024/02/21 07:31:44;;;;;;;10.40;6.65;;;5.40;99.90;;;;;;5036315;28;20033;-91
2024/02/21 07:34:10;;;;;;;11.15;7.30;;;5.50;99.90;;;;;;5035974;28;20168;-87
2024/02/21 07:36:37;;;;;;;11.57;5.55;;;5.50;99.90;;;;;;5035600;28;20077;-88
2024/02/21 07:39:04;;;;;;;14.13;7.38;;;5.60;99.90;;;;;;5037511;28;20029;-88
2024/02/21 07:41:30;;;;;;;11.32;5.60;;;5.60;99.90;;;;;;5038050;28;20018;-89
2024/02/21 07:43:56;;;;;;;10.68;5.03;;;5.60;99.90;;;;;;5037678;28;20018;-88
2024/02/21 07:46:21;;;;;;;11.65;6.13;;;5.70;99.90;;;;;;5030965;28;20092;-90
2024/02/21 07:48:47;;;;;;;12.63;7.55;;;5.70;99.90;;;;;;5034353;28;20029;-87
2024/02/21 07:51:13;;;;;;;16.65;7.10;;;5.70;99.90;;;;;;5037185;28;20032;-86
2024/02/21 07:53:44;;;;;;;16.45;6.80;;;5.80;99.90;;;;;;5029697;28;20413;-88
2024/02/21 07:56:10;;;;;;;10.25;5.25;;;5.90;99.90;;;;;;5030721;28;20029;-88
2024/02/21 07:58:40;;;;;;;19.35;7.05;;;5.90;99.90;;;;;;5029146;28;20460;-88
2024/02/21 08:01:06;;;;;;;10.07;6.20;;;6.00;99.90;;;;;;5033760;28;20511;-90
2024/02/21 08:03:31;;;;;;;9.63;6.35;;;6.00;99.90;;;;;;5027723;28;20022;-87
2024/02/21 08:05:57;;;;;;;11.35;5.97;;;6.10;99.90;;;;;;5030778;28;20033;-89
2024/02/21 08:08:23;;;;;;;9.95;5.43;;;6.20;99.90;;;;;;5026457;28;20092;-88
2024/02/21 08:10:51;;;;;;;13.50;6.30;;;6.20;99.90;;;;;;5029898;28;20091;-88
2024/02/21 08:13:17;;;;;;;12.85;6.43;;;6.30;99.90;;;;;;5034188;28;20092;-88
2024/02/21 08:15:43;;;;;;;18.65;9.10;;;6.30;99.90;;;;;;5025437;28;20041;-88
2024/02/21 08:18:09;;;;;;;10.23;7.35;;;6.40;99.90;;;;;;5032549;28;20045;-88
2024/02/21 08:20:35;;;;;;;10.00;5.88;;;6.50;99.90;;;;;;5028877;28;20500;-89
2024/02/21 08:23:01;;;;;;;11.73;6.72;;;6.50;99.90;;;;;;5049459;28;20460;-88
2024/02/21 08:25:26;;;;;;;14.00;5.43;;;6.50;99.90;;;;;;5036456;28;20056;-88
2024/02/21 08:27:59;;;;;;;10.73;6.03;;;6.60;99.90;;;;;;5032660;28;20029;-88
2024/02/21 08:30:25;;;;;;;11.77;4.72;;;6.70;99.90;;;;;;5028698;28;20534;-88
2024/02/21 08:32:51;;;;;;;12.52;5.28;;;6.80;99.90;;;;;;5029166;28;20026;-89
2024/02/21 08:35:22;;;;;;;11.00;5.40;;;6.80;99.90;;;;;;5028829;28;20025;-88
2024/02/21 08:37:47;;;;;;;15.50;6.07;;;6.90;99.90;;;;;;5027643;28;20021;-88
2024/02/21 08:40:17;;;;;;;14.90;5.18;;;7.00;99.90;;;;;;5030175;28;20026;-88
2024/02/21 08:42:43;;;;;;;10.00;5.13;;;7.10;99.90;;;;;;5033084;28;20167;-89
2024/02/21 08:45:09;;;;;;;11.07;4.47;;;7.20;99.90;;;;;;5031083;28;20032;-90
2024/02/21 08:47:35;;;;;;;10.60;5.35;;;7.20;99.90;;;;;;5028125;28;20033;-89
2024/02/21 08:50:02;;;;;;;10.63;5.53;;;7.30;99.90;;;;;;5060274;28;20025;-88
2024/02/21 08:52:28;;;;;;;12.30;4.75;;;7.40;99.90;;;;;;5035724;28;20021;-88
2024/02/21 08:54:54;;;;;;;7.45;3.92;;;7.40;98.90;;;;;;5035532;28;20036;-89
2024/02/21 08:57:20;;;;;;;9.32;4.43;;;7.50;99.20;;;;;;5035398;28;20326;-89
2024/02/21 08:59:47;;;;;;;12.18;4.57;;;7.50;99.70;;;;;;5034313;28;20112;-87
2024/02/21 09:02:13;;;;;;;9.55;5.45;;;7.50;97.60;;;;;;5033025;28;20221;-89
2024/02/21 09:04:38;;;;;;;8.32;4.68;;;7.50;98.10;;;;;;5033720;28;20110;-87
2024/02/21 09:07:04;;;;;;;9.52;4.10;;;7.60;96.50;;;;;;5034156;28;20041;-88
2024/02/21 09:09:30;;;;;;;9.55;4.40;;;7.70;95.30;;;;;;5033725;28;20736;-88
2024/02/21 09:11:55;;;;;;;11.05;4.65;;;7.70;96.20;;;;;;5040549;28;20030;-88
2024/02/21 09:14:22;;;;;;;7.78;4.75;;;7.70;96.90;;;;;;5034927;28;20025;-86
2024/02/21 09:16:47;;;;;;;10.13;4.53;;;7.70;96.10;;;;;;5034573;28;20029;-88
2024/02/21 09:19:13;;;;;;;9.88;4.32;;;7.70;95.60;;;;;;5034977;28;20026;-88
2024/02/21 09:21:39;;;;;;;10.50;4.28;;;7.70;95.90;;;;;;5033939;28;20022;-88
2024/02/21 09:24:06;;;;;;;14.43;5.22;;;7.80;96.10;;;;;;5035831;28;20109;-89
2024/02/21 09:26:31;;;;;;;10.40;5.18;;;7.80;93.30;;;;;;5038764;28;20025;-87
2024/02/21 09:28:57;;;;;;;8.98;3.70;;;8.00;93.90;;;;;;5039150;28;20067;-90
2024/02/21 09:31:23;;;;;;;9.38;4.72;;;8.00;93.70;;;;;;5038679;28;20523;-88
2024/02/21 09:33:49;;;;;;;12.18;4.93;;;8.10;94.70;;;;;;5039779;28;20092;-88
2024/02/21 09:36:14;;;;;;;10.52;4.30;;;8.10;93.80;;;;;;5053877;28;20029;-87
2024/02/21 09:38:41;;;;;;;8.82;4.07;;;8.30;93.30;;;;;;5039057;28;20096;-88
2024/02/21 09:41:17;;;;;;;8.85;4.53;;;8.30;92.60;;;;;;5038853;28;20014;-88
2024/02/21 09:43:45;;;;;;;8.63;3.83;;;8.20;91.80;;;;;;5031710;28;20026;-88
2024/02/21 09:46:20;;;;;;;10.13;4.97;;;8.20;91.80;;;;;;5038514;28;20021;-87
2024/02/21 09:49:10;;;;;;;9.88;3.97;;;8.30;92.00;;;;;;5038612;28;20026;-87
2024/02/21 09:51:38;;;;;;;11.70;4.13;;;8.40;92.30;;;;;;5053238;28;20036;-88
2024/02/21 09:54:04;;;;;;;;;;;8.50;91.40;;;;;;5039066;28;20030;-88
2024/02/21 09:56:29;;;;;;;10.70;3.92;;;8.50;91.20;;;;;;5038735;28;19927;-88
2024/02/21 09:58:57;;;;;;;9.30;4.00;;;8.60;90.30;;;;;;5037515;28;20052;-89
2024/02/21 10:01:22;;;;;;;8.05;5.07;;;8.50;88.60;;;;;;5038941;28;20022;-88
2024/02/21 10:03:49;;;;;;;8.63;3.92;;;8.60;90.80;;;;;;5038809;28;20028;-88
2024/02/21 10:06:15;;;;;;;7.15;3.47;;;8.70;87.20;;;;;;5037635;28;20033;-88
2024/02/21 10:08:40;;;;;;;9.43;3.33;;;8.70;87.00;;;;;;5039700;28;20021;-88
2024/02/21 10:11:08;;;;;;;9.75;3.40;;;8.80;89.30;;;;;;5037875;28;20022;-89
2024/02/21 10:13:35;;;;;;;10.23;4.28;;;8.80;89.50;;;;;;5037982;28;20030;-89
2024/02/21 10:16:07;;;;;;;9.13;3.30;;;8.90;87.10;;;;;;5038472;28;20025;-87
2024/02/21 10:18:34;;;;;;;7.22;3.20;;;9.10;86.70;;;;;;5039422;28;20041;-88
2024/02/21 10:21:07;;;;;;;7.50;4.03;;;9.30;85.90;;;;;;5039116;28;20018;-88
2024/02/21 10:23:43;;;;;;;7.78;4.03;;;9.30;85.10;;;;;;5038521;28;20032;-88
2024/02/21 10:26:09;;;;;;;9.27;4.72;;;9.30;83.00;;;;;;5053852;28;20022;-88
2024/02/21 10:28:34;;;;;;;8.68;3.80;;;9.50;83.90;;;;;;5038786;28;20044;-89
2024/02/21 10:31:00;;;;;;;8.50;2.67;;;9.60;83.30;;;;;;5039349;28;20300;-88
2024/02/21 10:33:27;;;;;;;7.03;3.42;;;9.70;79.30;;;;;;5038114;28;20017;-88
2024/02/21 10:35:53;;;;;;;9.23;2.78;;;9.70;79.90;;;;;;5037014;28;20030;-88
2024/02/21 10:38:19;;;;;;;6.85;3.92;;;9.70;80.60;;;;;;5031924;28;20486;-90
2024/02/21 10:40:48;;;;;;;8.90;3.10;;;9.60;78.90;;;;;;5039267;28;20434;-88
2024/02/21 10:43:15;;;;;;;7.63;3.88;;;9.80;80.00;;;;;;5037913;28;20025;-88
2024/02/21 10:45:41;;;;;;;13.13;4.25;;;9.80;80.10;;;;;;5038816;28;20017;-88
2024/02/21 10:48:28;;;;;;;7.97;4.57;;;9.70;80.00;;;;;;5038495;28;20357;-87
2024/02/21 10:51:00;;;;;;;;;;;9.70;79.10;;;;;;5038518;28;20027;-88
2024/02/21 10:53:37;;;;;;;9.70;2.90;;;9.80;79.30;;;;;;5041714;28;19905;-89
2024/02/21 10:56:11;;;;;;;8.80;3.50;;;10.00;78.20;;;;;;5040443;28;20032;-88
2024/02/21 10:58:39;;;;;;;9.02;3.38;;;10.00;76.90;;;;;;5038805;28;20036;-89
2024/02/21 11:01:05;;;;;;;9.80;3.60;;;9.90;77.60;;;;;;5039084;28;20021;-87
2024/02/21 11:03:32;;;;;;;5.90;2.60;;;9.90;80.40;;;;;;5038882;28;20048;-88
2024/02/21 11:05:59;;;;;;;9.60;3.30;;;10.10;77.20;;;;;;5038836;28;20052;-88
2024/02/21 11:08:27;;;;;;;7.60;3.08;;;10.20;76.90;;;;;;5039550;28;20097;-91
2024/02/21 11:10:59;;;;;;;6.35;3.00;;;10.40;77.70;;;;;;5029416;28;20034;-88
2024/02/21 11:13:34;;;;;;;5.03;2.67;;;10.40;74.70;;;;;;5034934;28;20104;-88
2024/02/21 11:16:26;;;;;;;8.25;2.67;;;10.50;74.40;;;;;;5050313;28;20094;-88
2024/02/21 11:18:52;;;;;;;5.40;2.08;;;10.60;75.90;;;;;;5026651;28;20065;-88
2024/02/21 11:21:17;;;;;;;8.10;2.72;;;10.70;73.90;;;;;;5037688;28;20025;-88
2024/02/21 11:23:43;;;;;;;8.50;3.03;;;10.70;74.80;;;;;;5038368;28;20033;-86
2024/02/21 11:26:10;;;;;;;9.73;3.42;;;10.70;72.40;;;;;;5040757;28;20013;-88
2024/02/21 11:28:37;;;;;;;10.65;2.58;;;10.60;73.90;;;;;;5036281;28;20152;-88
2024/02/21 11:31:10;;;;;;;9.15;2.80;;;10.70;74.50;;;;;;5037560;28;20554;-88
2024/02/21 11:33:39;;;;;;;7.70;2.88;;;10.50;74.30;;;;;;5036017;28;20408;-88
2024/02/21 11:36:05;;;;;;;7.38;2.47;;;10.50;73.00;;;;;;5037982;28;20028;-88
2024/02/21 11:38:31;;;;;;;11.98;4.65;;;10.50;72.80;;;;;;5038332;28;20022;-89
2024/02/21 11:40:58;;;;;;;5.78;3.17;;;10.60;73.50;;;;;;5052206;28;20133;-88
2024/02/21 11:43:24;;;;;;;5.85;3.00;;;10.60;72.80;;;;;;5037268;28;20105;-88
2024/02/21 11:45:49;;;;;;;5.38;2.58;;;10.50;72.60;;;;;;5051594;28;20049;-88
2024/02/21 11:48:15;;;;;;;11.38;3.08;;;10.50;72.90;;;;;;5036683;28;20507;-88
2024/02/21 11:50:54;;;;;;;6.72;2.35;;;10.50;74.60;;;;;;5028541;28;20022;-88
2024/02/21 11:53:20;;;;;;;7.90;2.72;;;10.50;71.90;;;;;;5036731;28;20515;-88
2024/02/21 11:55:46;;;;;;;12.13;2.85;;;10.40;73.10;;;;;;5035887;28;20021;-88
2024/02/21 11:58:12;;;;;;;5.45;3.03;;;10.40;72.20;;;;;;5036938;28;20029;-88
2024/02/21 12:00:37;;;;;;;5.85;2.45;;;10.50;71.80;;;;;;5052372;28;20100;-87
2024/02/21 12:03:06;;;;;;;5.35;2.25;;;10.60;73.20;;;;;;5039445;28;20044;-90
2024/02/21 12:05:32;;;;;;;6.32;2.97;;;10.60;73.40;;;;;;5046086;28;20045;-89
2024/02/21 12:07:58;;;;;;;7.82;2.67;;;10.70;71.30;;;;;;5029874;28;20021;-90
2024/02/21 12:10:26;;;;;;;9.07;3.13;;;10.70;71.00;;;;;;5037852;28;20433;-90
2024/02/21 12:12:52;;;;;;;;;;;10.60;69.70;;;;;;5039622;28;20026;-90
2024/02/21 12:15:18;;;;;;;8.38;4.05;;;10.60;71.80;;;;;;5046363;28;20042;-90
2024/02/21 12:17:45;;;;;;;6.13;2.55;;;10.70;71.60;;;;;;5049886;28;20028;-91
2024/02/21 12:20:14;;;;;;;7.00;2.70;;;10.70;70.90;;;;;;5049961;28;20006;-89
2024/02/21 12:22:41;;;;;;;7.75;2.47;;;10.60;72.40;;;;;;5048311;28;20018;-90
2024/02/21 12:25:27;;;;;;;7.55;3.08;;;10.60;72.70;;;;;;5051772;28;20033;-90
2024/02/21 12:27:53;;;;;;;11.38;3.20;;;10.60;73.20;;;;;;5051567;28;20063;-91
2024/02/21 12:30:19;;;;;;;11.00;2.55;;;10.70;73.30;;;;;;5039550;28;20038;-91
2024/02/21 12:32:46;;;;;;;5.97;2.80;;;10.80;71.40;;;;;;5036517;28;20029;-90
2024/02/21 12:35:11;;;;;;;6.30;3.10;;;10.80;72.50;;;;;;5040273;28;20063;-88
2024/02/21 12:37:37;;;;;;;10.73;3.13;;;10.60;71.60;;;;;;5051873;28;20029;-88
2024/02/21 12:40:08;;;;;;;8.48;2.67;;;10.60;71.50;;;;;;5037332;28;20035;-89
2024/02/21 12:42:34;;;;;;;5.80;3.08;;;10.60;72.30;;;;;;5037573;28;20022;-89
2024/02/21 12:45:03;;;;;;;5.45;2.20;;;10.70;70.90;;;;;;5033942;28;20028;-87
2024/02/21 12:47:28;;;;;;;7.80;3.08;;;10.70;71.30;;;;;;5035251;28;20021;-90